Time,TemperatureF,DewpointF,PressureIn,WindDirection,WindDirectionDegrees,WindSpeedMPH,WindSpeedGustMPH,Humidity,HourlyPrecipIn,Conditions,Clouds,dailyrainin,SoftwareType,DateUTC
2013-04-28 00:02:00,47.8,41.0,30.16,WSW,243,10.0,13.0,77,0.00,,,0.00,meteohub,2013-04-27 23:02:00,
2013-04-28 00:07:00,47.8,41.0,30.16,West,263,2.0,15.0,77,0.00,,,0.00,meteohub,2013-04-27 23:07:00,
2013-04-28 00:12:00,47.8,41.0,30.16,WSW,251,5.0,15.0,77,0.00,,,0.00,meteohub,2013-04-27 23:12:00,
2013-04-28 00:17:00,47.8,41.0,30.15,WSW,252,6.0,15.0,77,0.00,,,0.00,meteohub,2013-04-27 23:17:00,
2013-04-28 00:22:00,47.8,40.6,30.15,WSW,250,11.0,15.0,76,0.00,,,0.00,meteohub,2013-04-27 23:22:00,
2013-04-28 00:32:00,47.8,40.6,30.15,SW,235,10.0,15.0,76,0.00,,,0.00,meteohub,2013-04-27 23:32:00,
2013-04-28 00:37:00,47.8,40.6,30.14,West,260,5.0,18.0,76,0.00,,,0.00,meteohub,2013-04-27 23:37:00,
2013-04-28 00:42:00,47.8,40.6,30.14,WSW,250,13.0,18.0,76,0.00,,,0.00,meteohub,2013-04-27 23:42:00,
2013-04-28 00:47:00,47.8,40.6,30.14,WSW,241,8.0,21.0,76,0.00,,,0.00,meteohub,2013-04-27 23:47:00,
2013-04-28 00:52:00,47.8,40.6,30.14,WSW,239,15.0,21.0,76,0.00,,,0.00,meteohub,2013-04-27 23:52:00,
2013-04-28 00:57:00,47.8,40.6,30.14,WNW,287,6.0,21.0,76,0.00,,,0.00,meteohub,2013-04-27 23:57:00,
2013-04-28 01:02:00,47.8,41.0,30.13,WSW,247,5.0,18.0,77,0.00,,,0.00,meteohub,2013-04-28 00:02:00,
2013-04-28 01:07:00,47.8,41.0,30.13,West,271,13.0,18.0,77,0.00,,,0.00,meteohub,2013-04-28 00:07:00,
2013-04-28 01:12:00,48.0,41.2,30.13,SW,231,8.0,15.0,77,0.00,,,0.00,meteohub,2013-04-28 00:12:00,
2013-04-28 01:17:00,47.8,41.0,30.12,WNW,302,4.0,15.0,77,0.00,,,0.00,meteohub,2013-04-28 00:17:00,
2013-04-28 01:22:00,48.0,41.2,30.12,WSW,254,8.0,15.0,77,0.00,,,0.00,meteohub,2013-04-28 00:22:00,
2013-04-28 01:27:00,48.0,41.5,30.12,WSW,249,4.0,15.0,78,0.00,,,0.00,meteohub,2013-04-28 00:27:00,
2013-04-28 01:32:00,48.0,41.5,30.12,West,272,8.0,15.0,78,0.00,,,0.00,meteohub,2013-04-28 00:32:00,
2013-04-28 01:37:00,47.8,41.4,30.12,WSW,248,4.0,20.0,78,0.00,,,0.00,meteohub,2013-04-28 00:37:00,
2013-04-28 01:47:00,48.0,41.9,30.12,WSW,244,9.0,20.0,79,0.00,,,0.00,meteohub,2013-04-28 00:47:00,
2013-04-28 01:52:00,48.0,41.9,30.11,WSW,256,9.0,18.0,79,0.00,,,0.00,meteohub,2013-04-28 00:52:00,
2013-04-28 01:57:00,48.0,41.9,30.11,SSW,211,2.0,19.0,79,0.00,,,0.00,meteohub,2013-04-28 00:57:00,
2013-04-28 02:02:00,47.8,41.9,30.10,WSW,257,9.0,24.0,80,0.00,,,0.00,meteohub,2013-04-28 01:02:00,
2013-04-28 02:07:00,47.8,41.9,30.10,West,268,8.0,24.0,80,0.00,,,0.00,meteohub,2013-04-28 01:07:00,
2013-04-28 02:12:00,47.8,42.3,30.10,West,260,13.0,24.0,81,0.00,,,0.00,meteohub,2013-04-28 01:12:00,
2013-04-28 02:17:00,47.8,42.6,30.09,WSW,248,13.0,21.0,82,0.00,,,0.00,meteohub,2013-04-28 01:17:00,
2013-04-28 02:22:00,47.8,42.6,30.09,WSW,242,10.0,21.0,82,0.00,,,0.00,meteohub,2013-04-28 01:22:00,
2013-04-28 02:27:00,47.8,43.0,30.09,SW,223,10.0,21.0,83,0.00,,,0.00,meteohub,2013-04-28 01:27:00,
2013-04-28 02:32:00,47.8,43.2,30.09,WSW,252,11.0,19.0,84,0.00,,,0.00,meteohub,2013-04-28 01:32:00,
2013-04-28 02:42:00,47.7,43.3,30.09,SSW,213,13.0,19.0,85,0.00,,,0.00,meteohub,2013-04-28 01:42:00,
2013-04-28 02:47:00,47.5,43.2,30.08,SW,219,8.0,19.0,85,0.00,,,0.00,meteohub,2013-04-28 01:47:00,
2013-04-28 02:52:00,47.3,43.3,30.08,SW,232,5.0,18.0,86,0.00,,,0.00,meteohub,2013-04-28 01:52:00,
2013-04-28 02:57:00,47.1,43.5,30.08,WSW,247,2.0,18.0,87,0.00,,,0.00,meteohub,2013-04-28 01:57:00,
2013-04-28 03:02:00,47.1,43.7,30.07,West,261,5.0,16.0,88,0.00,,,0.00,meteohub,2013-04-28 02:02:00,
2013-04-28 03:07:00,46.9,43.5,30.07,SW,234,8.0,14.0,88,0.00,,,0.00,meteohub,2013-04-28 02:07:00,
2013-04-28 03:12:00,46.9,43.9,30.07,WSW,256,5.0,13.0,89,0.00,,,0.00,meteohub,2013-04-28 02:12:00,
2013-04-28 03:17:00,46.9,43.9,30.07,WSW,237,1.0,11.0,89,0.00,,,0.00,meteohub,2013-04-28 02:17:00,
2013-04-28 03:22:00,46.9,44.2,30.06,WSW,250,4.0,11.0,90,0.00,,,0.00,meteohub,2013-04-28 02:22:00,
2013-04-28 03:27:00,46.9,44.2,30.06,SW,227,5.0,11.0,90,0.00,,,0.00,meteohub,2013-04-28 02:27:00,
2013-04-28 03:32:00,46.8,44.2,30.06,WSW,252,2.0,14.0,91,0.00,,,0.00,meteohub,2013-04-28 02:32:00,
2013-04-28 03:37:00,46.9,44.4,30.05,WSW,239,2.0,14.0,91,0.00,,,0.00,meteohub,2013-04-28 02:37:00,
2013-04-28 03:42:00,46.9,44.8,30.05,SSW,198,0.0,19.0,92,0.00,,,0.00,meteohub,2013-04-28 02:42:00,
2013-04-28 03:47:00,46.9,44.8,30.04,WNW,286,5.0,19.0,92,0.00,,,0.00,meteohub,2013-04-28 02:47:00,
2013-04-28 03:52:00,46.9,44.8,30.04,SSW,205,8.0,15.0,92,0.00,,,0.00,meteohub,2013-04-28 02:52:00,
2013-04-28 03:57:00,46.9,44.8,30.04,East,90,1.0,15.0,92,0.01,,,0.01,meteohub,2013-04-28 02:57:00,
2013-04-28 04:02:00,47.1,45.0,30.03,SW,232,2.0,19.0,92,0.01,,,0.01,meteohub,2013-04-28 03:02:00,
2013-04-28 04:07:00,47.1,45.1,30.03,SSW,201,6.0,19.0,93,0.01,,,0.01,meteohub,2013-04-28 03:07:00,
2013-04-28 04:12:00,47.1,45.1,30.03,WSW,240,1.0,11.0,93,0.01,,,0.01,meteohub,2013-04-28 03:12:00,
2013-04-28 04:17:00,47.1,45.1,30.03,WNW,302,18.0,18.0,93,0.01,,,0.01,meteohub,2013-04-28 03:17:00,
2013-04-28 04:22:00,47.1,45.1,30.02,SSW,206,8.0,18.0,93,0.01,,,0.01,meteohub,2013-04-28 03:22:00,
2013-04-28 04:27:00,47.1,45.5,30.03,SSE,151,5.0,18.0,94,0.02,,,0.02,meteohub,2013-04-28 03:27:00,
2013-04-28 04:32:00,47.1,45.5,30.03,SSW,203,2.0,18.0,94,0.02,,,0.02,meteohub,2013-04-28 03:32:00,
2013-04-28 04:37:00,47.3,45.7,30.02,SSW,196,1.0,14.0,94,0.02,,,0.02,meteohub,2013-04-28 03:37:00,
2013-04-28 04:42:00,47.7,46.0,30.02,SSW,207,4.0,11.0,94,0.02,,,0.02,meteohub,2013-04-28 03:42:00,
2013-04-28 04:47:00,48.0,46.4,30.01,WSW,254,4.0,11.0,94,0.02,,,0.02,meteohub,2013-04-28 03:47:00,
2013-04-28 04:52:00,48.4,46.8,30.01,WSW,240,10.0,14.0,94,0.01,,,0.02,meteohub,2013-04-28 03:52:00,
2013-04-28 04:57:00,48.4,46.8,30.01,WSW,248,8.0,14.0,94,0.01,,,0.02,meteohub,2013-04-28 03:57:00,
2013-04-28 05:02:00,48.6,46.9,30.01,West,263,11.0,16.0,94,0.01,,,0.02,meteohub,2013-04-28 04:02:00,
2013-04-28 05:07:00,48.7,47.3,30.01,West,271,8.0,20.0,95,0.01,,,0.02,meteohub,2013-04-28 04:07:00,
2013-04-28 05:12:00,48.7,47.3,30.01,West,277,8.0,20.0,95,0.02,,,0.02,meteohub,2013-04-28 04:12:00,
2013-04-28 05:17:00,48.7,47.3,30.00,West,261,14.0,20.0,95,0.02,,,0.02,meteohub,2013-04-28 04:17:00,
2013-04-28 05:22:00,48.9,47.5,30.00,WSW,240,8.0,20.0,95,0.02,,,0.02,meteohub,2013-04-28 04:22:00,
2013-04-28 05:27:00,48.9,47.5,30.00,SW,227,15.0,19.0,95,0.02,,,0.03,meteohub,2013-04-28 04:27:00,
2013-04-28 05:32:00,48.9,47.5,30.00,WSW,254,9.0,19.0,95,0.02,,,0.03,meteohub,2013-04-28 04:32:00,
2013-04-28 05:37:00,48.9,47.5,30.00,WSW,258,11.0,19.0,95,0.02,,,0.03,meteohub,2013-04-28 04:37:00,
2013-04-28 05:42:00,48.9,47.5,29.99,West,266,6.0,19.0,95,0.02,,,0.03,meteohub,2013-04-28 04:42:00,
2013-04-28 05:47:00,48.9,47.5,29.99,West,263,9.0,19.0,95,0.02,,,0.03,meteohub,2013-04-28 04:47:00,
2013-04-28 05:52:00,48.9,47.5,29.99,WSW,256,6.0,19.0,95,0.02,,,0.03,meteohub,2013-04-28 04:52:00,
2013-04-28 05:57:00,48.9,47.5,30.00,NW,309,6.0,18.0,95,0.02,,,0.03,meteohub,2013-04-28 04:57:00,
2013-04-28 06:02:00,48.9,47.5,30.00,WNW,288,9.0,25.0,95,0.02,,,0.03,meteohub,2013-04-28 05:02:00,
2013-04-28 06:07:00,48.9,47.5,30.00,WSW,244,5.0,25.0,95,0.02,,,0.03,meteohub,2013-04-28 05:07:00,
2013-04-28 06:12:00,48.9,47.5,29.99,NNW,327,8.0,25.0,95,0.01,,,0.03,meteohub,2013-04-28 05:12:00,
2013-04-28 06:17:00,48.9,47.5,29.99,SW,236,5.0,16.0,95,0.01,,,0.03,meteohub,2013-04-28 05:17:00,
2013-04-28 06:22:00,48.9,47.5,29.99,WNW,297,4.0,16.0,95,0.01,,,0.03,meteohub,2013-04-28 05:22:00,
2013-04-28 06:27:00,48.9,47.5,29.99,West,277,5.0,14.0,95,0.00,,,0.03,meteohub,2013-04-28 05:27:00,
2013-04-28 06:32:00,48.9,47.5,29.99,West,280,9.0,14.0,95,0.00,,,0.03,meteohub,2013-04-28 05:32:00,
2013-04-28 06:37:00,48.9,47.5,29.99,West,267,4.0,16.0,95,0.02,,,0.05,meteohub,2013-04-28 05:37:00,
2013-04-28 06:42:00,48.9,47.5,29.99,NNW,328,10.0,16.0,95,0.02,,,0.05,meteohub,2013-04-28 05:42:00,
2013-04-28 06:47:00,48.9,47.5,29.99,West,261,6.0,16.0,95,0.02,,,0.05,meteohub,2013-04-28 05:47:00,
2013-04-28 06:52:00,48.9,47.5,29.99,WNW,295,9.0,15.0,95,0.02,,,0.05,meteohub,2013-04-28 05:52:00,
2013-04-28 06:57:00,48.7,47.3,29.99,West,266,5.0,15.0,95,0.02,,,0.05,meteohub,2013-04-28 05:57:00,
2013-04-28 07:02:00,48.7,47.3,29.99,WSW,243,8.0,15.0,95,0.02,,,0.05,meteohub,2013-04-28 06:02:00,
2013-04-28 07:07:00,48.7,47.3,29.99,West,273,5.0,20.0,95,0.02,,,0.05,meteohub,2013-04-28 06:07:00,
2013-04-28 07:12:00,48.7,47.3,29.99,WNW,298,5.0,20.0,95,0.02,,,0.05,meteohub,2013-04-28 06:12:00,
2013-04-28 07:17:00,48.7,47.3,29.99,WSW,239,8.0,16.0,95,0.02,,,0.05,meteohub,2013-04-28 06:17:00,
2013-04-28 07:22:00,48.9,47.5,29.99,West,266,4.0,13.0,95,0.02,,,0.05,meteohub,2013-04-28 06:22:00,
2013-04-28 07:27:00,48.9,47.5,29.99,West,269,2.0,13.0,95,0.02,,,0.05,meteohub,2013-04-28 06:27:00,
2013-04-28 07:32:00,48.9,47.5,29.98,NW,304,11.0,13.0,95,0.02,,,0.05,meteohub,2013-04-28 06:32:00,
2013-04-28 07:37:00,49.1,47.7,29.98,WSW,252,2.0,13.0,95,0.00,,,0.05,meteohub,2013-04-28 06:37:00,
2013-04-28 07:42:00,49.3,47.8,29.98,WNW,288,6.0,14.0,95,0.00,,,0.05,meteohub,2013-04-28 06:42:00,
2013-04-28 07:47:00,49.3,47.8,29.98,NW,313,5.0,14.0,95,0.00,,,0.05,meteohub,2013-04-28 06:47:00,
2013-04-28 07:52:00,49.5,48.0,29.98,NW,306,4.0,14.0,95,0.00,,,0.05,meteohub,2013-04-28 06:52:00,
2013-04-28 07:57:00,49.5,48.0,29.98,West,271,8.0,13.0,95,0.00,,,0.05,meteohub,2013-04-28 06:57:00,
2013-04-28 08:02:00,49.5,48.0,29.98,NW,315,2.0,14.0,95,0.00,,,0.05,meteohub,2013-04-28 07:02:00,
2013-04-28 08:07:00,49.5,48.0,29.98,WNW,285,5.0,14.0,95,0.00,,,0.05,meteohub,2013-04-28 07:07:00,
2013-04-28 08:12:00,49.5,48.0,29.98,West,268,5.0,14.0,95,0.00,,,0.05,meteohub,2013-04-28 07:12:00,
2013-04-28 08:17:00,49.5,48.0,29.98,WNW,283,5.0,14.0,95,0.00,,,0.05,meteohub,2013-04-28 07:17:00,
2013-04-28 08:22:00,49.5,48.0,29.98,West,275,11.0,16.0,95,0.00,,,0.05,meteohub,2013-04-28 07:22:00,
2013-04-28 08:27:00,49.5,47.8,29.98,WSW,257,10.0,16.0,94,0.00,,,0.05,meteohub,2013-04-28 07:27:00,
2013-04-28 08:32:00,49.3,47.7,29.98,NNW,327,4.0,16.0,94,0.00,,,0.05,meteohub,2013-04-28 07:32:00,
2013-04-28 08:37:00,49.5,47.8,29.98,West,267,11.0,16.0,94,0.00,,,0.05,meteohub,2013-04-28 07:37:00,
2013-04-28 08:42:00,49.5,47.8,29.98,WNW,294,11.0,16.0,94,0.00,,,0.05,meteohub,2013-04-28 07:42:00,
2013-04-28 08:47:00,49.5,47.8,29.98,WNW,286,5.0,16.0,94,0.00,,,0.05,meteohub,2013-04-28 07:47:00,
2013-04-28 08:52:00,49.5,47.5,29.98,WNW,295,10.0,16.0,93,0.00,,,0.05,meteohub,2013-04-28 07:52:00,
2013-04-28 08:57:00,49.6,47.5,29.98,WNW,282,2.0,14.0,92,0.00,,,0.05,meteohub,2013-04-28 07:57:00,
2013-04-28 09:02:00,49.6,47.1,29.98,WNW,298,5.0,14.0,91,0.00,,,0.05,meteohub,2013-04-28 08:02:00,
2013-04-28 09:07:00,49.8,46.9,29.98,NW,310,5.0,13.0,90,0.00,,,0.05,meteohub,2013-04-28 08:07:00,
2013-04-28 09:12:00,50.0,46.9,29.98,WNW,286,8.0,10.0,89,0.00,,,0.05,meteohub,2013-04-28 08:12:00,
2013-04-28 09:17:00,50.0,46.6,29.98,WSW,249,8.0,13.0,88,0.00,,,0.05,meteohub,2013-04-28 08:17:00,
2013-04-28 09:22:00,50.0,46.6,29.98,WNW,297,4.0,13.0,88,0.00,,,0.05,meteohub,2013-04-28 08:22:00,
2013-04-28 09:27:00,50.0,46.6,29.98,WNW,286,4.0,13.0,88,0.00,,,0.05,meteohub,2013-04-28 08:27:00,
2013-04-28 09:32:00,49.8,46.8,29.98,West,259,9.0,11.0,89,0.00,,,0.05,meteohub,2013-04-28 08:32:00,
2013-04-28 09:37:00,49.8,46.0,29.98,WNW,289,15.0,16.0,87,0.00,,,0.05,meteohub,2013-04-28 08:37:00,
2013-04-28 09:42:00,50.2,45.9,29.97,West,269,13.0,21.0,85,0.00,,,0.05,meteohub,2013-04-28 08:42:00,
2013-04-28 09:47:00,50.4,45.1,29.97,WNW,292,8.0,21.0,82,0.00,,,0.05,meteohub,2013-04-28 08:47:00,
2013-04-28 09:52:00,50.5,45.0,29.97,WNW,297,11.0,21.0,81,0.00,,,0.05,meteohub,2013-04-28 08:52:00,
2013-04-28 09:57:00,50.7,44.8,29.97,WNW,294,8.0,21.0,80,0.00,,,0.05,meteohub,2013-04-28 08:57:00,
2013-04-28 10:02:00,50.7,44.8,29.97,West,271,9.0,16.0,80,0.00,,,0.05,meteohub,2013-04-28 09:02:00,
2013-04-28 10:07:00,50.7,44.8,29.97,WNW,291,4.0,15.0,80,0.00,,,0.05,meteohub,2013-04-28 09:07:00,
2013-04-28 10:12:00,50.9,45.0,29.97,WNW,284,4.0,18.0,80,0.00,,,0.05,meteohub,2013-04-28 09:12:00,
2013-04-28 10:17:00,51.1,45.1,29.97,WNW,295,6.0,18.0,80,0.00,,,0.05,meteohub,2013-04-28 09:17:00,
2013-04-28 10:22:00,50.9,44.6,29.97,West,279,5.0,18.0,79,0.00,,,0.05,meteohub,2013-04-28 09:22:00,
2013-04-28 10:27:00,50.7,44.4,29.97,NW,309,10.0,15.0,79,0.00,,,0.05,meteohub,2013-04-28 09:27:00,
2013-04-28 10:32:00,50.9,44.6,29.97,West,281,9.0,15.0,79,0.00,,,0.05,meteohub,2013-04-28 09:32:00,
2013-04-28 10:37:00,50.5,45.0,29.97,SW,230,9.0,19.0,81,0.00,,,0.05,meteohub,2013-04-28 09:37:00,
2013-04-28 10:42:00,50.4,44.8,29.98,West,281,6.0,19.0,81,0.00,,,0.05,meteohub,2013-04-28 09:42:00,
2013-04-28 10:47:00,50.4,45.3,29.98,West,277,6.0,19.0,83,0.00,,,0.05,meteohub,2013-04-28 09:47:00,
2013-04-28 10:52:00,50.4,45.1,29.97,WNW,286,8.0,14.0,82,0.00,,,0.05,meteohub,2013-04-28 09:52:00,
2013-04-28 10:57:00,50.9,45.7,29.97,West,279,8.0,15.0,82,0.00,,,0.05,meteohub,2013-04-28 09:57:00,
2013-04-28 11:02:00,51.4,45.5,29.97,West,279,14.0,16.0,80,0.00,,,0.05,meteohub,2013-04-28 10:02:00,
2013-04-28 11:07:00,51.6,44.6,29.97,WSW,243,11.0,16.0,77,0.00,,,0.05,meteohub,2013-04-28 10:07:00,
2013-04-28 11:12:00,51.6,44.2,29.97,WNW,291,18.0,18.0,76,0.00,,,0.05,meteohub,2013-04-28 10:12:00,
2013-04-28 11:17:00,51.8,44.1,29.97,NW,310,8.0,18.0,75,0.01,,,0.06,meteohub,2013-04-28 10:17:00,
2013-04-28 11:27:00,51.6,43.3,29.97,West,281,9.0,20.0,73,0.01,,,0.06,meteohub,2013-04-28 10:27:00,
2013-04-28 11:32:00,52.0,43.2,29.97,NW,305,15.0,21.0,72,0.01,,,0.06,meteohub,2013-04-28 10:32:00,
2013-04-28 11:37:00,52.2,43.0,29.97,WNW,301,9.0,21.0,71,0.01,,,0.06,meteohub,2013-04-28 10:37:00,
2013-04-28 11:42:00,51.8,43.0,29.97,WNW,286,9.0,21.0,72,0.01,,,0.06,meteohub,2013-04-28 10:42:00,
2013-04-28 11:47:00,51.4,43.5,29.97,West,279,13.0,24.0,74,0.01,,,0.06,meteohub,2013-04-28 10:47:00,
2013-04-28 11:52:00,51.6,43.3,29.97,West,271,18.0,24.0,73,0.01,,,0.06,meteohub,2013-04-28 10:52:00,
2013-04-28 11:57:00,51.6,43.0,29.97,NW,323,8.0,24.0,72,0.01,,,0.06,meteohub,2013-04-28 10:57:00,
2013-04-28 12:02:00,52.2,43.7,29.97,West,271,6.0,24.0,73,0.01,,,0.06,meteohub,2013-04-28 11:02:00,
2013-04-28 12:07:00,52.9,43.7,29.97,WSW,254,13.0,22.0,71,0.01,,,0.06,meteohub,2013-04-28 11:07:00,
2013-04-28 12:12:00,53.4,44.2,29.97,West,263,9.0,21.0,71,0.01,,,0.06,meteohub,2013-04-28 11:12:00,
2013-04-28 12:17:00,53.4,43.5,29.97,NNW,327,14.0,21.0,69,0.00,,,0.06,meteohub,2013-04-28 11:17:00,
2013-04-28 12:22:00,53.2,43.3,29.97,WNW,290,11.0,21.0,69,0.00,,,0.06,meteohub,2013-04-28 11:22:00,
2013-04-28 12:27:00,53.2,42.6,29.97,North,9,13.0,18.0,67,0.00,,,0.06,meteohub,2013-04-28 11:27:00,
2013-04-28 12:32:00,53.6,43.0,29.97,WNW,298,5.0,18.0,67,0.00,,,0.06,meteohub,2013-04-28 11:32:00,
2013-04-28 12:37:00,53.4,42.3,29.97,West,275,13.0,18.0,66,0.00,,,0.06,meteohub,2013-04-28 11:37:00,
2013-04-28 12:42:00,53.2,41.4,29.97,WNW,288,9.0,21.0,64,0.00,,,0.06,meteohub,2013-04-28 11:42:00,
2013-04-28 12:52:00,53.1,41.5,29.97,WNW,295,9.0,21.0,65,0.00,,,0.06,meteohub,2013-04-28 11:52:00,
2013-04-28 12:57:00,52.7,41.7,29.97,West,269,4.0,20.0,66,0.00,,,0.06,meteohub,2013-04-28 11:57:00,
2013-04-28 13:02:00,52.7,42.1,29.97,West,275,6.0,20.0,67,0.00,,,0.06,meteohub,2013-04-28 12:02:00,
2013-04-28 13:07:00,52.9,41.4,29.97,West,277,11.0,22.0,65,0.00,,,0.06,meteohub,2013-04-28 12:07:00,
2013-04-28 13:12:00,52.5,41.9,29.97,West,273,15.0,28.0,67,0.00,,,0.06,meteohub,2013-04-28 12:12:00,
2013-04-28 13:17:00,52.3,42.1,29.97,NW,321,6.0,28.0,68,0.00,,,0.06,meteohub,2013-04-28 12:17:00,
2013-04-28 13:22:00,52.5,41.9,29.97,West,265,18.0,28.0,67,0.00,,,0.06,meteohub,2013-04-28 12:22:00,
2013-04-28 13:27:00,53.1,42.1,29.97,WNW,289,4.0,21.0,66,0.00,,,0.06,meteohub,2013-04-28 12:27:00,
2013-04-28 13:32:00,52.9,41.9,29.97,NW,317,19.0,21.0,66,0.00,,,0.06,meteohub,2013-04-28 12:32:00,
2013-04-28 13:42:00,52.3,41.4,29.97,NW,311,9.0,26.0,66,0.00,,,0.06,meteohub,2013-04-28 12:42:00,
2013-04-28 13:47:00,52.2,42.6,29.97,NW,307,13.0,26.0,70,0.00,,,0.06,meteohub,2013-04-28 12:47:00,
2013-04-28 13:52:00,51.8,42.6,29.97,West,276,10.0,22.0,71,0.00,,,0.06,meteohub,2013-04-28 12:52:00,
2013-04-28 13:57:00,52.2,43.0,29.96,West,275,9.0,22.0,71,0.00,,,0.06,meteohub,2013-04-28 12:57:00,
2013-04-28 14:02:00,53.6,43.0,29.96,NW,319,4.0,20.0,67,0.00,,,0.06,meteohub,2013-04-28 13:02:00,
2013-04-28 14:07:00,53.2,42.3,29.96,WNW,290,10.0,19.0,66,0.00,,,0.06,meteohub,2013-04-28 13:07:00,
2013-04-28 14:12:00,52.7,41.7,29.96,West,278,6.0,18.0,66,0.00,,,0.06,meteohub,2013-04-28 13:12:00,
2013-04-28 14:22:00,52.2,43.0,29.96,NNW,327,9.0,19.0,71,0.00,,,0.06,meteohub,2013-04-28 13:22:00,
2013-04-28 14:27:00,51.8,43.0,29.96,West,279,14.0,19.0,72,0.00,,,0.06,meteohub,2013-04-28 13:27:00,
2013-04-28 14:32:00,52.3,43.2,29.96,NW,313,5.0,19.0,71,0.00,,,0.06,meteohub,2013-04-28 13:32:00,
2013-04-28 14:37:00,52.9,42.6,29.96,West,267,11.0,18.0,68,0.00,,,0.06,meteohub,2013-04-28 13:37:00,
2013-04-28 14:42:00,53.4,42.8,29.96,WNW,284,9.0,19.0,67,0.00,,,0.06,meteohub,2013-04-28 13:42:00,
2013-04-28 14:47:00,53.2,42.3,29.96,NW,313,6.0,19.0,66,0.00,,,0.06,meteohub,2013-04-28 13:47:00,
2013-04-28 14:52:00,53.4,42.8,29.95,WNW,292,16.0,19.0,67,0.00,,,0.06,meteohub,2013-04-28 13:52:00,
2013-04-28 14:57:00,53.6,41.7,29.95,West,269,9.0,19.0,64,0.00,,,0.06,meteohub,2013-04-28 13:57:00,
2013-04-28 15:02:00,53.4,40.6,29.96,West,281,10.0,22.0,62,0.00,,,0.06,meteohub,2013-04-28 14:02:00,
2013-04-28 15:07:00,53.1,41.5,29.96,WNW,296,9.0,22.0,65,0.00,,,0.06,meteohub,2013-04-28 14:07:00,
2013-04-28 15:12:00,51.6,43.0,29.96,West,281,16.0,25.0,72,0.00,,,0.06,meteohub,2013-04-28 14:12:00,
2013-04-28 15:17:00,51.1,41.2,29.96,WNW,294,9.0,26.0,69,0.00,,,0.06,meteohub,2013-04-28 14:17:00,
2013-04-28 15:22:00,51.1,41.7,29.96,NNW,329,8.0,26.0,70,0.00,,,0.06,meteohub,2013-04-28 14:22:00,
2013-04-28 15:27:00,51.3,42.3,29.96,WNW,292,6.0,26.0,71,0.00,,,0.06,meteohub,2013-04-28 14:27:00,
2013-04-28 15:32:00,51.6,43.0,29.96,NW,317,10.0,20.0,72,0.00,,,0.06,meteohub,2013-04-28 14:32:00,
2013-04-28 15:37:00,52.0,43.2,29.96,WNW,287,10.0,18.0,72,0.00,,,0.06,meteohub,2013-04-28 14:37:00,
2013-04-28 15:42:00,51.8,42.3,29.96,NW,309,8.0,16.0,70,0.00,,,0.06,meteohub,2013-04-28 14:42:00,
2013-04-28 15:47:00,51.1,42.8,29.96,NW,321,8.0,22.0,73,0.00,,,0.06,meteohub,2013-04-28 14:47:00,
2013-04-28 15:52:00,51.6,44.2,29.96,WNW,288,18.0,22.0,76,0.00,,,0.06,meteohub,2013-04-28 14:52:00,
2013-04-28 15:57:00,52.3,43.2,29.96,WNW,293,10.0,22.0,71,0.00,,,0.06,meteohub,2013-04-28 14:57:00,
2013-04-28 16:02:00,52.0,42.8,29.96,NW,319,11.0,22.0,71,0.00,,,0.06,meteohub,2013-04-28 15:02:00,
2013-04-28 16:07:00,51.6,42.4,29.96,WNW,292,18.0,22.0,71,0.00,,,0.06,meteohub,2013-04-28 15:07:00,
2013-04-28 16:12:00,50.9,41.5,29.96,WNW,298,9.0,24.0,70,0.00,,,0.06,meteohub,2013-04-28 15:12:00,
2013-04-28 16:17:00,50.9,41.9,29.96,WNW,299,5.0,25.0,71,0.00,,,0.06,meteohub,2013-04-28 15:17:00,
2013-04-28 16:22:00,51.3,41.9,29.96,North,355,5.0,25.0,70,0.00,,,0.06,meteohub,2013-04-28 15:22:00,
2013-04-28 16:27:00,53.1,43.2,29.95,NNW,344,13.0,25.0,69,0.00,,,0.06,meteohub,2013-04-28 15:27:00,
2013-04-28 16:32:00,53.2,42.6,29.95,West,266,9.0,21.0,67,0.00,,,0.06,meteohub,2013-04-28 15:32:00,
2013-04-28 16:37:00,53.2,43.3,29.95,West,273,11.0,24.0,69,0.00,,,0.06,meteohub,2013-04-28 15:37:00,
2013-04-28 16:42:00,52.7,41.7,29.94,WNW,294,18.0,26.0,66,0.00,,,0.06,meteohub,2013-04-28 15:42:00,
2013-04-28 16:47:00,52.5,41.9,29.95,WNW,300,16.0,30.0,67,0.00,,,0.06,meteohub,2013-04-28 15:47:00,
2013-04-28 16:52:00,51.6,40.6,29.95,WNW,292,13.0,30.0,66,0.00,,,0.06,meteohub,2013-04-28 15:52:00,
2013-04-28 16:57:00,52.9,42.3,29.96,NW,307,10.0,30.0,67,0.00,,,0.06,meteohub,2013-04-28 15:57:00,
2013-04-28 17:02:00,53.6,42.1,29.96,WNW,291,14.0,30.0,65,0.00,,,0.06,meteohub,2013-04-28 16:02:00,
2013-04-28 17:07:00,52.2,41.2,29.96,WNW,291,9.0,30.0,66,0.00,,,0.06,meteohub,2013-04-28 16:07:00,
2013-04-28 17:12:00,51.8,41.9,29.96,WNW,289,9.0,25.0,69,0.00,,,0.06,meteohub,2013-04-28 16:12:00,
2013-04-28 17:17:00,51.8,41.5,29.96,West,265,9.0,25.0,68,0.00,,,0.06,meteohub,2013-04-28 16:17:00,
2013-04-28 17:22:00,51.4,40.5,29.96,West,279,13.0,25.0,66,0.00,,,0.06,meteohub,2013-04-28 16:22:00,
2013-04-28 17:27:00,51.6,41.4,29.96,West,268,8.0,25.0,68,0.00,,,0.06,meteohub,2013-04-28 16:27:00,
2013-04-28 17:32:00,51.8,41.2,29.95,WNW,300,9.0,25.0,67,0.00,,,0.06,meteohub,2013-04-28 16:32:00,
2013-04-28 17:37:00,52.2,41.5,29.95,WNW,286,14.0,21.0,67,0.00,,,0.06,meteohub,2013-04-28 16:37:00,
2013-04-28 17:42:00,52.5,41.5,29.96,WNW,286,14.0,21.0,66,0.00,,,0.06,meteohub,2013-04-28 16:42:00,
2013-04-28 17:47:00,52.7,42.1,29.96,NW,304,10.0,21.0,67,0.00,,,0.06,meteohub,2013-04-28 16:47:00,
2013-04-28 17:52:00,52.7,40.5,29.96,WNW,298,13.0,21.0,63,0.00,,,0.06,meteohub,2013-04-28 16:52:00,
2013-04-28 17:57:00,52.3,39.7,29.96,West,278,16.0,21.0,62,0.00,,,0.06,meteohub,2013-04-28 16:57:00,
2013-04-28 18:02:00,52.0,39.0,29.95,WNW,284,16.0,21.0,61,0.00,,,0.06,meteohub,2013-04-28 17:02:00,
2013-04-28 18:07:00,52.2,39.6,29.95,WNW,289,10.0,25.0,62,0.00,,,0.06,meteohub,2013-04-28 17:07:00,
2013-04-28 18:12:00,52.0,39.4,29.96,NW,325,9.0,28.0,62,0.00,,,0.06,meteohub,2013-04-28 17:12:00,
2013-04-28 18:17:00,51.1,39.7,29.95,NW,304,20.0,30.0,65,0.00,,,0.06,meteohub,2013-04-28 17:17:00,
2013-04-28 18:22:00,50.5,40.5,29.96,WNW,300,20.0,30.0,68,0.00,,,0.06,meteohub,2013-04-28 17:22:00,
2013-04-28 18:27:00,50.2,40.8,29.95,WNW,292,13.0,30.0,70,0.00,,,0.06,meteohub,2013-04-28 17:27:00,
2013-04-28 18:37:00,50.7,39.7,29.96,West,281,16.0,28.0,66,0.00,,,0.06,meteohub,2013-04-28 17:37:00,
2013-04-28 18:42:00,50.7,39.7,29.96,WNW,284,18.0,24.0,66,0.00,,,0.06,meteohub,2013-04-28 17:42:00,
2013-04-28 18:47:00,50.5,39.2,29.95,West,272,9.0,25.0,65,0.00,,,0.06,meteohub,2013-04-28 17:47:00,
2013-04-28 18:52:00,50.4,38.3,29.96,WNW,288,16.0,25.0,63,0.00,,,0.06,meteohub,2013-04-28 17:52:00,
2013-04-28 18:57:00,50.0,37.9,29.96,WNW,289,20.0,32.0,63,0.00,,,0.06,meteohub,2013-04-28 17:57:00,
2013-04-28 19:02:00,49.8,38.1,29.96,WNW,290,13.0,32.0,64,0.00,,,0.06,meteohub,2013-04-28 18:02:00,
2013-04-28 19:07:00,49.8,38.5,29.96,NW,312,8.0,28.0,65,0.00,,,0.06,meteohub,2013-04-28 18:07:00,
2013-04-28 19:12:00,50.0,38.7,29.96,WNW,286,20.0,26.0,65,0.00,,,0.06,meteohub,2013-04-28 18:12:00,
2013-04-28 19:17:00,49.8,38.5,29.96,West,271,22.0,26.0,65,0.00,,,0.06,meteohub,2013-04-28 18:17:00,
2013-04-28 19:22:00,49.8,38.8,29.95,West,281,9.0,24.0,66,0.00,,,0.06,meteohub,2013-04-28 18:22:00,
2013-04-28 19:27:00,49.8,38.8,29.95,WNW,288,14.0,24.0,66,0.00,,,0.06,meteohub,2013-04-28 18:27:00,
2013-04-28 19:32:00,50.2,39.2,29.95,West,276,15.0,22.0,66,0.00,,,0.06,meteohub,2013-04-28 18:32:00,
2013-04-28 19:37:00,50.2,39.2,29.95,WNW,287,9.0,21.0,66,0.00,,,0.06,meteohub,2013-04-28 18:37:00,
2013-04-28 19:42:00,50.2,39.2,29.95,WNW,284,14.0,20.0,66,0.00,,,0.06,meteohub,2013-04-28 18:42:00,
2013-04-28 19:47:00,50.2,39.2,29.95,West,265,13.0,20.0,66,0.00,,,0.06,meteohub,2013-04-28 18:47:00,
2013-04-28 19:52:00,50.0,38.7,29.95,West,276,11.0,22.0,65,0.00,,,0.06,meteohub,2013-04-28 18:52:00,
2013-04-28 19:57:00,49.8,38.8,29.96,WNW,299,9.0,22.0,66,0.00,,,0.06,meteohub,2013-04-28 18:57:00,
2013-04-28 20:02:00,48.9,40.3,29.97,WNW,283,15.0,28.0,72,0.00,,,0.06,meteohub,2013-04-28 19:02:00,
2013-04-28 20:07:00,47.1,39.9,29.97,West,281,6.0,28.0,76,0.01,,,0.06,meteohub,2013-04-28 19:07:00,
2013-04-28 20:12:00,46.2,40.1,29.97,WNW,290,10.0,28.0,79,0.01,,,0.06,meteohub,2013-04-28 19:12:00,
2013-04-28 20:17:00,45.9,40.3,29.97,West,278,8.0,26.0,81,0.01,,,0.06,meteohub,2013-04-28 19:17:00,
2013-04-28 20:22:00,45.9,40.6,29.97,WNW,295,9.0,24.0,82,0.01,,,0.06,meteohub,2013-04-28 19:22:00,
2013-04-28 20:32:00,45.9,40.6,29.97,WNW,302,9.0,22.0,82,0.01,,,0.06,meteohub,2013-04-28 19:32:00,
2013-04-28 20:37:00,45.9,40.6,29.97,WNW,286,14.0,22.0,82,0.01,,,0.06,meteohub,2013-04-28 19:37:00,
2013-04-28 20:47:00,45.7,40.5,29.97,West,281,6.0,18.0,82,0.01,,,0.06,meteohub,2013-04-28 19:47:00,
2013-04-28 20:52:00,45.5,40.3,29.97,WNW,296,11.0,18.0,82,0.01,,,0.06,meteohub,2013-04-28 19:52:00,
2013-04-28 20:57:00,45.3,40.1,29.97,WNW,298,9.0,18.0,82,0.01,,,0.06,meteohub,2013-04-28 19:57:00,
2013-04-28 21:02:00,45.3,40.1,29.97,WNW,286,8.0,20.0,82,0.01,,,0.06,meteohub,2013-04-28 20:02:00,
2013-04-28 21:12:00,45.3,40.1,29.97,WNW,286,4.0,14.0,82,0.00,,,0.06,meteohub,2013-04-28 20:12:00,
2013-04-28 21:17:00,45.3,40.1,29.97,West,281,6.0,14.0,82,0.00,,,0.06,meteohub,2013-04-28 20:17:00,
2013-04-28 21:22:00,45.3,39.9,29.97,West,278,6.0,15.0,81,0.00,,,0.06,meteohub,2013-04-28 20:22:00,
2013-04-28 21:27:00,45.3,39.6,29.98,West,273,6.0,15.0,80,0.00,,,0.06,meteohub,2013-04-28 20:27:00,
2013-04-28 21:32:00,45.5,39.7,29.98,WNW,289,6.0,15.0,80,0.00,,,0.06,meteohub,2013-04-28 20:32:00,
2013-04-28 21:37:00,45.7,39.9,29.98,WNW,290,16.0,16.0,80,0.00,,,0.06,meteohub,2013-04-28 20:37:00,
2013-04-28 21:42:00,45.9,39.7,29.99,WNW,298,6.0,18.0,79,0.00,,,0.06,meteohub,2013-04-28 20:42:00,
2013-04-28 21:47:00,45.5,39.7,29.98,NW,306,5.0,22.0,80,0.00,,,0.06,meteohub,2013-04-28 20:47:00,
2013-04-28 21:57:00,45.0,39.7,29.98,WNW,298,9.0,22.0,82,0.00,,,0.06,meteohub,2013-04-28 20:57:00,
2013-04-28 22:02:00,45.0,39.7,29.98,WNW,290,5.0,15.0,82,0.00,,,0.06,meteohub,2013-04-28 21:02:00,
2013-04-28 22:07:00,44.8,39.9,29.98,WNW,284,2.0,13.0,83,0.00,,,0.06,meteohub,2013-04-28 21:07:00,
2013-04-28 22:12:00,44.6,39.7,29.98,WNW,298,4.0,11.0,83,0.00,,,0.06,meteohub,2013-04-28 21:12:00,
2013-04-28 22:17:00,44.4,39.9,29.98,WNW,294,1.0,11.0,84,0.00,,,0.06,meteohub,2013-04-28 21:17:00,
2013-04-28 22:22:00,44.2,40.1,29.99,WNW,286,4.0,9.0,85,0.00,,,0.06,meteohub,2013-04-28 21:22:00,
2013-04-28 22:27:00,44.2,40.1,29.98,WSW,250,8.0,8.0,85,0.00,,,0.06,meteohub,2013-04-28 21:27:00,
2013-04-28 22:32:00,44.2,40.1,29.98,West,279,4.0,8.0,85,0.00,,,0.06,meteohub,2013-04-28 21:32:00,
2013-04-28 22:37:00,44.4,40.3,29.99,West,278,4.0,9.0,85,0.00,,,0.06,meteohub,2013-04-28 21:37:00,
2013-04-28 22:42:00,44.4,39.9,29.99,WNW,295,4.0,9.0,84,0.00,,,0.06,meteohub,2013-04-28 21:42:00,
2013-04-28 22:47:00,44.6,39.7,29.99,WNW,289,4.0,10.0,83,0.00,,,0.06,meteohub,2013-04-28 21:47:00,
2013-04-28 22:52:00,44.4,39.2,29.99,WNW,285,4.0,10.0,82,0.00,,,0.06,meteohub,2013-04-28 21:52:00,
2013-04-28 22:57:00,44.6,39.2,29.99,WNW,285,2.0,14.0,81,0.00,,,0.06,meteohub,2013-04-28 21:57:00,
2013-04-28 23:02:00,44.6,38.8,29.99,WNW,302,5.0,14.0,80,0.00,,,0.06,meteohub,2013-04-28 22:02:00,
2013-04-28 23:07:00,44.6,39.2,29.99,WNW,297,2.0,14.0,81,0.00,,,0.06,meteohub,2013-04-28 22:07:00,
2013-04-28 23:12:00,44.4,39.0,29.99,NW,306,2.0,8.0,81,0.00,,,0.06,meteohub,2013-04-28 22:12:00,
2013-04-28 23:17:00,44.4,39.2,30.00,WNW,288,4.0,8.0,82,0.00,,,0.06,meteohub,2013-04-28 22:17:00,
2013-04-28 23:22:00,44.4,39.0,29.99,NW,316,11.0,14.0,81,0.00,,,0.06,meteohub,2013-04-28 22:22:00,
2013-04-28 23:27:00,44.4,39.0,30.00,West,281,9.0,19.0,81,0.00,,,0.06,meteohub,2013-04-28 22:27:00,
2013-04-28 23:32:00,44.4,39.0,30.00,WNW,284,5.0,19.0,81,0.00,,,0.06,meteohub,2013-04-28 22:32:00,
2013-04-28 23:37:00,44.4,39.0,30.00,WNW,291,8.0,19.0,81,0.00,,,0.06,meteohub,2013-04-28 22:37:00,
2013-04-28 23:42:00,44.2,38.8,30.00,WNW,299,4.0,15.0,81,0.00,,,0.06,meteohub,2013-04-28 22:42:00,
2013-04-28 23:47:00,44.1,38.7,30.00,West,275,6.0,15.0,81,0.00,,,0.06,meteohub,2013-04-28 22:47:00,
2013-04-28 23:52:00,44.1,38.3,30.00,West,273,6.0,11.0,80,0.00,,,0.06,meteohub,2013-04-28 22:52:00,
2013-04-28 23:57:00,44.1,37.9,30.00,WNW,297,2.0,11.0,79,0.00,,,0.06,meteohub,2013-04-28 22:57:00,